sensor_id;sensor_type;location;lat;lon;timestamp;temperature;humidity
61912;DHT22;49973;52.084;5.412;2023-03-15T00:01:06;1.60;99.90
61912;DHT22;49973;52.084;5.412;2023-03-15T00:03:35;1.70;99.90
61912;DHT22;49973;52.084;5.412;2023-03-15T00:06:06;1.70;99.90
61912;DHT22;49973;52.084;5.412;2023-03-15T00:08:35;1.70;99.90
61912;DHT22;49973;52.084;5.412;2023-03-15T00:11:04;1.70;99.90
61912;DHT22;49973;52.084;5.412;2023-03-15T00:13:33;1.70;99.90
61912;DHT22;49973;52.084;5.412;2023-03-15T00:16:03;1.70;99.90
61912;DHT22;49973;52.084;5.412;2023-03-15T00:18:32;1.70;99.90
61912;DHT22;49973;52.084;5.412;2023-03-15T00:21:01;1.70;99.90
61912;DHT22;49973;52.084;5.412;2023-03-15T00:23:29;1.60;99.90
61912;DHT22;49973;52.084;5.412;2023-03-15T00:25:58;1.60;99.90
61912;DHT22;49973;52.084;5.412;2023-03-15T00:28:26;1.60;99.90
61912;DHT22;49973;52.084;5.412;2023-03-15T00:31:07;1.60;99.90
61912;DHT22;49973;52.084;5.412;2023-03-15T00:33:37;1.60;99.90
61912;DHT22;49973;52.084;5.412;2023-03-15T00:36:07;1.50;99.90
61912;DHT22;49973;52.084;5.412;2023-03-15T00:38:37;1.50;99.90
61912;DHT22;49973;52.084;5.412;2023-03-15T00:41:08;1.50;99.90
61912;DHT22;49973;52.084;5.412;2023-03-15T00:43:37;1.50;99.90
61912;DHT22;49973;52.084;5.412;2023-03-15T00:46:07;1.50;99.90
61912;DHT22;49973;52.084;5.412;2023-03-15T00:48:36;1.60;99.90
61912;DHT22;49973;52.084;5.412;2023-03-15T00:51:06;1.50;99.90
61912;DHT22;49973;52.084;5.412;2023-03-15T00:53:38;1.40;99.90
61912;DHT22;49973;52.084;5.412;2023-03-15T00:56:09;1.40;99.90
61912;DHT22;49973;52.084;5.412;2023-03-15T00:58:38;1.40;99.90
61912;DHT22;49973;52.084;5.412;2023-03-15T01:01:10;1.50;99.90
61912;DHT22;49973;52.084;5.412;2023-03-15T01:03:38;1.40;99.90
61912;DHT22;49973;52.084;5.412;2023-03-15T01:06:10;1.40;99.90
61912;DHT22;49973;52.084;5.412;2023-03-15T01:08:39;1.50;99.90
61912;DHT22;49973;52.084;5.412;2023-03-15T01:11:09;1.50;99.90
61912;DHT22;49973;52.084;5.412;2023-03-15T01:13:38;1.50;99.90
61912;DHT22;49973;52.084;5.412;2023-03-15T01:16:11;1.50;99.90
61912;DHT22;49973;52.084;5.412;2023-03-15T01:18:42;1.50;99.90
61912;DHT22;49973;52.084;5.412;2023-03-15T01:21:13;1.60;99.90
61912;DHT22;49973;52.084;5.412;2023-03-15T01:23:45;1.50;99.90
61912;DHT22;49973;52.084;5.412;2023-03-15T01:26:15;1.50;99.90
61912;DHT22;49973;52.084;5.412;2023-03-15T01:28:45;1.50;99.90
61912;DHT22;49973;52.084;5.412;2023-03-15T01:31:17;1.60;99.90
61912;DHT22;49973;52.084;5.412;2023-03-15T01:33:46;1.60;99.90
61912;DHT22;49973;52.084;5.412;2023-03-15T01:36:15;1.60;99.90
61912;DHT22;49973;52.084;5.412;2023-03-15T01:38:44;1.70;99.90
61912;DHT22;49973;52.084;5.412;2023-03-15T01:41:15;1.70;99.90
61912;DHT22;49973;52.084;5.412;2023-03-15T01:43:44;1.70;99.90
61912;DHT22;49973;52.084;5.412;2023-03-15T01:46:35;1.70;99.90
61912;DHT22;49973;52.084;5.412;2023-03-15T01:49:17;1.70;99.90
61912;DHT22;49973;52.084;5.412;2023-03-15T01:51:53;1.70;99.90
61912;DHT22;49973;52.084;5.412;2023-03-15T01:54:27;1.70;99.90
61912;DHT22;49973;52.084;5.412;2023-03-15T01:57:00;1.70;99.90
61912;DHT22;49973;52.084;5.412;2023-03-15T01:59:32;1.70;99.90
61912;DHT22;49973;52.084;5.412;2023-03-15T02:02:04;1.70;99.90
61912;DHT22;49973;52.084;5.412;2023-03-15T02:04:35;1.70;99.90
61912;DHT22;49973;52.084;5.412;2023-03-15T02:07:07;1.70;99.90
61912;DHT22;49973;52.084;5.412;2023-03-15T02:09:43;1.60;99.90
61912;DHT22;49973;52.084;5.412;2023-03-15T02:12:16;1.60;99.90
61912;DHT22;49973;52.084;5.412;2023-03-15T02:14:48;1.60;99.90
61912;DHT22;49973;52.084;5.412;2023-03-15T02:17:27;1.60;99.90
61912;DHT22;49973;52.084;5.412;2023-03-15T02:20:02;1.70;99.90
61912;DHT22;49973;52.084;5.412;2023-03-15T02:22:40;1.50;99.90
61912;DHT22;49973;52.084;5.412;2023-03-15T02:25:20;1.60;99.90
61912;DHT22;49973;52.084;5.412;2023-03-15T02:27:51;1.50;99.90
61912;DHT22;49973;52.084;5.412;2023-03-15T02:30:20;1.50;99.90
61912;DHT22;49973;52.084;5.412;2023-03-15T02:32:48;1.50;99.90
61912;DHT22;49973;52.084;5.412;2023-03-15T02:35:26;1.50;99.90
61912;DHT22;49973;52.084;5.412;2023-03-15T02:37:54;1.40;99.90
61912;DHT22;49973;52.084;5.412;2023-03-15T02:40:26;1.40;99.90
61912;DHT22;49973;52.084;5.412;2023-03-15T02:42:59;1.40;99.90
61912;DHT22;49973;52.084;5.412;2023-03-15T02:45:29;1.40;99.90
61912;DHT22;49973;52.084;5.412;2023-03-15T02:47:59;1.40;99.90
61912;DHT22;49973;52.084;5.412;2023-03-15T02:50:28;1.40;99.90
61912;DHT22;49973;52.084;5.412;2023-03-15T02:52:57;1.40;99.90
61912;DHT22;49973;52.084;5.412;2023-03-15T02:55:25;1.40;99.90
61912;DHT22;49973;52.084;5.412;2023-03-15T02:57:56;1.40;99.90
61912;DHT22;49973;52.084;5.412;2023-03-15T03:00:24;1.40;99.90
61912;DHT22;49973;52.084;5.412;2023-03-15T03:02:54;1.40;99.90
61912;DHT22;49973;52.084;5.412;2023-03-15T03:05:22;1.40;99.90
61912;DHT22;49973;52.084;5.412;2023-03-15T03:07:51;1.40;99.90
61912;DHT22;49973;52.084;5.412;2023-03-15T03:10:21;1.40;99.90
61912;DHT22;49973;52.084;5.412;2023-03-15T03:12:55;1.30;99.90
61912;DHT22;49973;52.084;5.412;2023-03-15T03:15:32;1.30;99.90
61912;DHT22;49973;52.084;5.412;2023-03-15T03:18:00;1.30;99.90
61912;DHT22;49973;52.084;5.412;2023-03-15T03:20:29;1.30;99.90
61912;DHT22;49973;52.084;5.412;2023-03-15T03:22:58;1.30;99.90
61912;DHT22;49973;52.084;5.412;2023-03-15T03:25:32;1.30;99.90
61912;DHT22;49973;52.084;5.412;2023-03-15T03:28:04;1.20;99.90
61912;DHT22;49973;52.084;5.412;2023-03-15T03:30:34;1.30;99.90
61912;DHT22;49973;52.084;5.412;2023-03-15T03:33:03;1.20;99.90
61912;DHT22;49973;52.084;5.412;2023-03-15T03:35:32;1.20;99.90
61912;DHT22;49973;52.084;5.412;2023-03-15T03:38:00;1.20;99.90
61912;DHT22;49973;52.084;5.412;2023-03-15T03:40:34;1.10;99.90
61912;DHT22;49973;52.084;5.412;2023-03-15T03:43:06;1.20;99.90
61912;DHT22;49973;52.084;5.412;2023-03-15T03:45:35;1.20;99.90
61912;DHT22;49973;52.084;5.412;2023-03-15T03:48:05;1.10;99.90
61912;DHT22;49973;52.084;5.412;2023-03-15T03:50:34;1.10;99.90
61912;DHT22;49973;52.084;5.412;2023-03-15T03:53:03;1.10;99.90
61912;DHT22;49973;52.084;5.412;2023-03-15T03:55:34;1.10;99.90
61912;DHT22;49973;52.084;5.412;2023-03-15T03:58:02;1.10;99.90
61912;DHT22;49973;52.084;5.412;2023-03-15T04:00:55;1.10;99.90
61912;DHT22;49973;52.084;5.412;2023-03-15T04:03:26;1.10;99.90
61912;DHT22;49973;52.084;5.412;2023-03-15T04:06:15;1.00;99.90
61912;DHT22;49973;52.084;5.412;2023-03-15T04:08:47;1.10;99.90
61912;DHT22;49973;52.084;5.412;2023-03-15T04:11:22;1.00;99.90
61912;DHT22;49973;52.084;5.412;2023-03-15T04:13:59;1.00;99.90
61912;DHT22;49973;52.084;5.412;2023-03-15T04:16:29;1.00;99.90
61912;DHT22;49973;52.084;5.412;2023-03-15T04:19:05;1.00;99.90
61912;DHT22;49973;52.084;5.412;2023-03-15T04:21:35;1.00;99.90
61912;DHT22;49973;52.084;5.412;2023-03-15T04:24:24;1.00;99.90
61912;DHT22;49973;52.084;5.412;2023-03-15T04:27:04;1.00;99.90
61912;DHT22;49973;52.084;5.412;2023-03-15T04:29:58;1.00;99.90
61912;DHT22;49973;52.084;5.412;2023-03-15T04:32:59;1.00;99.90
61912;DHT22;49973;52.084;5.412;2023-03-15T04:35:55;1.00;99.90
61912;DHT22;49973;52.084;5.412;2023-03-15T04:38:47;0.90;99.90
61912;DHT22;49973;52.084;5.412;2023-03-15T04:41:25;1.00;99.90
61912;DHT22;49973;52.084;5.412;2023-03-15T04:44:05;0.90;99.90
61912;DHT22;49973;52.084;5.412;2023-03-15T04:47:06;0.90;99.90
61912;DHT22;49973;52.084;5.412;2023-03-15T04:50:02;0.90;99.90
61912;DHT22;49973;52.084;5.412;2023-03-15T04:52:44;0.90;99.90
61912;DHT22;49973;52.084;5.412;2023-03-15T04:55:32;0.90;99.90
61912;DHT22;49973;52.084;5.412;2023-03-15T04:58:23;0.80;99.90
61912;DHT22;49973;52.084;5.412;2023-03-15T05:00:57;0.80;99.90
61912;DHT22;49973;52.084;5.412;2023-03-15T05:03:46;0.80;99.90
61912;DHT22;49973;52.084;5.412;2023-03-15T05:06:37;0.80;99.90
61912;DHT22;49973;52.084;5.412;2023-03-15T05:09:24;0.80;99.90
61912;DHT22;49973;52.084;5.412;2023-03-15T05:12:16;0.80;99.90
61912;DHT22;49973;52.084;5.412;2023-03-15T05:14:56;0.80;99.90
61912;DHT22;49973;52.084;5.412;2023-03-15T05:17:51;0.80;99.90
61912;DHT22;49973;52.084;5.412;2023-03-15T05:20:42;0.80;99.90
61912;DHT22;49973;52.084;5.412;2023-03-15T05:23:12;0.80;99.90
61912;DHT22;49973;52.084;5.412;2023-03-15T05:25:49;0.80;99.90
61912;DHT22;49973;52.084;5.412;2023-03-15T05:28:42;0.80;99.90
61912;DHT22;49973;52.084;5.412;2023-03-15T05:31:17;0.80;99.90
61912;DHT22;49973;52.084;5.412;2023-03-15T05:34:13;0.90;99.90
61912;DHT22;49973;52.084;5.412;2023-03-15T05:37:10;0.90;99.90
61912;DHT22;49973;52.084;5.412;2023-03-15T05:39:59;0.90;99.90
61912;DHT22;49973;52.084;5.412;2023-03-15T05:42:48;0.90;99.90
61912;DHT22;49973;52.084;5.412;2023-03-15T05:45:19;1.00;99.90
61912;DHT22;49973;52.084;5.412;2023-03-15T05:48:17;1.00;99.90
61912;DHT22;49973;52.084;5.412;2023-03-15T05:50:55;1.00;99.90
61912;DHT22;49973;52.084;5.412;2023-03-15T05:53:42;1.00;99.90
61912;DHT22;49973;52.084;5.412;2023-03-15T05:56:43;1.10;99.90
61912;DHT22;49973;52.084;5.412;2023-03-15T05:59:14;1.10;99.90
61912;DHT22;49973;52.084;5.412;2023-03-15T06:02:02;1.10;99.90
61912;DHT22;49973;52.084;5.412;2023-03-15T06:04:38;1.10;99.90
61912;DHT22;49973;52.084;5.412;2023-03-15T06:07:10;1.10;99.90
61912;DHT22;49973;52.084;5.412;2023-03-15T06:09:38;1.20;99.90
61912;DHT22;49973;52.084;5.412;2023-03-15T06:12:09;1.20;99.90
61912;DHT22;49973;52.084;5.412;2023-03-15T06:14:39;1.20;99.90
61912;DHT22;49973;52.084;5.412;2023-03-15T06:17:08;1.20;99.90
61912;DHT22;49973;52.084;5.412;2023-03-15T06:19:38;1.20;99.90
61912;DHT22;49973;52.084;5.412;2023-03-15T06:22:07;1.20;99.90
61912;DHT22;49973;52.084;5.412;2023-03-15T06:24:42;1.20;99.90
61912;DHT22;49973;52.084;5.412;2023-03-15T06:27:13;1.20;99.90
61912;DHT22;49973;52.084;5.412;2023-03-15T06:29:41;1.30;99.90
61912;DHT22;49973;52.084;5.412;2023-03-15T06:32:10;1.30;99.90
61912;DHT22;49973;52.084;5.412;2023-03-15T06:34:41;1.30;99.90
61912;DHT22;49973;52.084;5.412;2023-03-15T06:37:10;1.30;99.90
61912;DHT22;49973;52.084;5.412;2023-03-15T06:39:44;1.30;99.90
61912;DHT22;49973;52.084;5.412;2023-03-15T06:42:14;1.30;99.90
61912;DHT22;49973;52.084;5.412;2023-03-15T06:44:44;1.60;99.90
61912;DHT22;49973;52.084;5.412;2023-03-15T06:47:13;1.40;99.90
61912;DHT22;49973;52.084;5.412;2023-03-15T06:49:42;1.60;99.90
61912;DHT22;49973;52.084;5.412;2023-03-15T06:52:11;1.60;99.90
61912;DHT22;49973;52.084;5.412;2023-03-15T06:54:40;1.70;99.90
61912;DHT22;49973;52.084;5.412;2023-03-15T06:57:09;1.80;99.90
61912;DHT22;49973;52.084;5.412;2023-03-15T06:59:39;2.10;99.90
61912;DHT22;49973;52.084;5.412;2023-03-15T07:02:12;2.50;99.90
61912;DHT22;49973;52.084;5.412;2023-03-15T07:04:42;3.00;99.90
61912;DHT22;49973;52.084;5.412;2023-03-15T07:07:12;3.60;99.90
61912;DHT22;49973;52.084;5.412;2023-03-15T07:09:40;4.00;99.90
61912;DHT22;49973;52.084;5.412;2023-03-15T07:12:09;4.60;99.90
61912;DHT22;49973;52.084;5.412;2023-03-15T07:14:40;5.10;99.90
61912;DHT22;49973;52.084;5.412;2023-03-15T07:17:08;5.60;99.90
61912;DHT22;49973;52.084;5.412;2023-03-15T07:19:37;6.20;99.90
61912;DHT22;49973;52.084;5.412;2023-03-15T07:22:21;6.70;99.90
61912;DHT22;49973;52.084;5.412;2023-03-15T07:24:50;7.30;99.90
61912;DHT22;49973;52.084;5.412;2023-03-15T07:27:18;7.90;99.90
61912;DHT22;49973;52.084;5.412;2023-03-15T07:29:48;8.40;99.90
61912;DHT22;49973;52.084;5.412;2023-03-15T07:32:17;8.80;99.90
61912;DHT22;49973;52.084;5.412;2023-03-15T07:34:45;9.10;99.90
61912;DHT22;49973;52.084;5.412;2023-03-15T07:37:14;9.30;99.90
61912;DHT22;49973;52.084;5.412;2023-03-15T07:39:43;9.60;99.90
61912;DHT22;49973;52.084;5.412;2023-03-15T07:42:12;9.90;99.90
61912;DHT22;49973;52.084;5.412;2023-03-15T07:44:44;10.30;99.90
61912;DHT22;49973;52.084;5.412;2023-03-15T07:47:14;10.70;99.90
61912;DHT22;49973;52.084;5.412;2023-03-15T07:49:42;11.00;99.90
61912;DHT22;49973;52.084;5.412;2023-03-15T07:52:11;11.20;99.90
61912;DHT22;49973;52.084;5.412;2023-03-15T07:54:39;11.50;99.90
61912;DHT22;49973;52.084;5.412;2023-03-15T07:57:08;11.70;99.90
61912;DHT22;49973;52.084;5.412;2023-03-15T07:59:37;12.10;99.90
61912;DHT22;49973;52.084;5.412;2023-03-15T08:02:06;12.40;99.90
61912;DHT22;49973;52.084;5.412;2023-03-15T08:04:36;12.70;99.90
61912;DHT22;49973;52.084;5.412;2023-03-15T08:07:04;13.10;99.90
61912;DHT22;49973;52.084;5.412;2023-03-15T08:09:33;13.30;99.90
61912;DHT22;49973;52.084;5.412;2023-03-15T08:12:02;13.40;99.90
61912;DHT22;49973;52.084;5.412;2023-03-15T08:14:30;13.50;99.90
61912;DHT22;49973;52.084;5.412;2023-03-15T08:16:59;13.60;99.90
61912;DHT22;49973;52.084;5.412;2023-03-15T08:19:28;13.60;99.90
61912;DHT22;49973;52.084;5.412;2023-03-15T08:21:58;13.70;99.90
61912;DHT22;49973;52.084;5.412;2023-03-15T08:24:26;13.50;99.90
61912;DHT22;49973;52.084;5.412;2023-03-15T08:26:56;13.20;99.90
61912;DHT22;49973;52.084;5.412;2023-03-15T08:29:24;12.80;99.90
61912;DHT22;49973;52.084;5.412;2023-03-15T08:31:52;12.30;99.90
61912;DHT22;49973;52.084;5.412;2023-03-15T08:34:21;11.90;99.90
61912;DHT22;49973;52.084;5.412;2023-03-15T08:36:50;11.60;99.90
61912;DHT22;49973;52.084;5.412;2023-03-15T08:39:20;11.30;99.90
61912;DHT22;49973;52.084;5.412;2023-03-15T08:41:50;11.10;99.90
61912;DHT22;49973;52.084;5.412;2023-03-15T08:44:18;11.00;99.90
61912;DHT22;49973;52.084;5.412;2023-03-15T08:46:47;11.00;99.90
61912;DHT22;49973;52.084;5.412;2023-03-15T08:49:16;11.00;99.90
61912;DHT22;49973;52.084;5.412;2023-03-15T08:51:44;11.10;99.90
61912;DHT22;49973;52.084;5.412;2023-03-15T08:54:13;11.30;99.90
61912;DHT22;49973;52.084;5.412;2023-03-15T08:56:42;11.40;99.90
61912;DHT22;49973;52.084;5.412;2023-03-15T08:59:11;11.50;99.90
61912;DHT22;49973;52.084;5.412;2023-03-15T09:01:51;11.70;99.90
61912;DHT22;49973;52.084;5.412;2023-03-15T09:04:20;11.90;99.90
61912;DHT22;49973;52.084;5.412;2023-03-15T09:06:48;12.10;99.90
61912;DHT22;49973;52.084;5.412;2023-03-15T09:09:17;12.40;99.90
61912;DHT22;49973;52.084;5.412;2023-03-15T09:11:47;12.60;99.90
61912;DHT22;49973;52.084;5.412;2023-03-15T09:14:15;12.80;99.90
61912;DHT22;49973;52.084;5.412;2023-03-15T09:16:44;12.90;99.90
61912;DHT22;49973;52.084;5.412;2023-03-15T09:19:12;13.10;99.90
61912;DHT22;49973;52.084;5.412;2023-03-15T09:21:41;13.30;99.90
61912;DHT22;49973;52.084;5.412;2023-03-15T09:24:11;13.40;99.90
61912;DHT22;49973;52.084;5.412;2023-03-15T09:26:39;13.40;99.90
61912;DHT22;49973;52.084;5.412;2023-03-15T09:29:09;13.20;99.90
61912;DHT22;49973;52.084;5.412;2023-03-15T09:31:38;13.10;99.90
61912;DHT22;49973;52.084;5.412;2023-03-15T09:34:06;13.20;99.90
61912;DHT22;49973;52.084;5.412;2023-03-15T09:36:35;13.10;99.90
61912;DHT22;49973;52.084;5.412;2023-03-15T09:39:04;13.00;99.90
61912;DHT22;49973;52.084;5.412;2023-03-15T09:41:43;13.00;99.90
61912;DHT22;49973;52.084;5.412;2023-03-15T09:44:23;13.20;99.90
61912;DHT22;49973;52.084;5.412;2023-03-15T09:47:04;13.40;99.90
61912;DHT22;49973;52.084;5.412;2023-03-15T09:49:40;13.60;99.90
61912;DHT22;49973;52.084;5.412;2023-03-15T09:52:24;14.00;99.90
61912;DHT22;49973;52.084;5.412;2023-03-15T09:54:57;14.10;99.90
61912;DHT22;49973;52.084;5.412;2023-03-15T09:57:34;14.20;99.90
61912;DHT22;49973;52.084;5.412;2023-03-15T10:00:06;14.10;99.90
61912;DHT22;49973;52.084;5.412;2023-03-15T10:02:42;14.20;99.90
61912;DHT22;49973;52.084;5.412;2023-03-15T10:05:15;14.30;99.90
61912;DHT22;49973;52.084;5.412;2023-03-15T10:07:46;14.50;99.90
61912;DHT22;49973;52.084;5.412;2023-03-15T10:10:17;14.60;99.90
61912;DHT22;49973;52.084;5.412;2023-03-15T10:12:51;14.60;99.90
61912;DHT22;49973;52.084;5.412;2023-03-15T10:15:38;14.60;99.90
61912;DHT22;49973;52.084;5.412;2023-03-15T10:18:23;14.50;99.90
61912;DHT22;49973;52.084;5.412;2023-03-15T10:20:59;14.50;99.90
61912;DHT22;49973;52.084;5.412;2023-03-15T10:23:38;14.70;99.90
61912;DHT22;49973;52.084;5.412;2023-03-15T10:26:10;14.60;99.90
61912;DHT22;49973;52.084;5.412;2023-03-15T10:28:42;14.70;99.90
61912;DHT22;49973;52.084;5.412;2023-03-15T10:31:14;14.60;99.90
61912;DHT22;49973;52.084;5.412;2023-03-15T10:33:56;14.30;99.90
61912;DHT22;49973;52.084;5.412;2023-03-15T10:36:25;13.90;99.90
61912;DHT22;49973;52.084;5.412;2023-03-15T10:38:54;13.90;99.90
61912;DHT22;49973;52.084;5.412;2023-03-15T10:41:36;13.70;99.90
61912;DHT22;49973;52.084;5.412;2023-03-15T10:44:08;13.70;99.90
61912;DHT22;49973;52.084;5.412;2023-03-15T10:46:40;13.80;99.90
61912;DHT22;49973;52.084;5.412;2023-03-15T10:49:10;13.70;99.90
61912;DHT22;49973;52.084;5.412;2023-03-15T10:51:41;13.70;99.90
61912;DHT22;49973;52.084;5.412;2023-03-15T10:54:15;13.70;99.90
61912;DHT22;49973;52.084;5.412;2023-03-15T10:56:47;13.40;99.90
61912;DHT22;49973;52.084;5.412;2023-03-15T10:59:19;13.00;99.90
61912;DHT22;49973;52.084;5.412;2023-03-15T11:01:51;12.60;99.90
61912;DHT22;49973;52.084;5.412;2023-03-15T11:04:22;12.20;99.90
61912;DHT22;49973;52.084;5.412;2023-03-15T11:06:59;12.00;99.90
61912;DHT22;49973;52.084;5.412;2023-03-15T11:09:38;12.00;99.90
61912;DHT22;49973;52.084;5.412;2023-03-15T11:12:08;12.00;99.90
61912;DHT22;49973;52.084;5.412;2023-03-15T11:14:39;12.10;99.90
61912;DHT22;49973;52.084;5.412;2023-03-15T11:17:20;12.20;99.90
61912;DHT22;49973;52.084;5.412;2023-03-15T11:19:53;12.30;99.90
61912;DHT22;49973;52.084;5.412;2023-03-15T11:22:23;12.50;99.90
61912;DHT22;49973;52.084;5.412;2023-03-15T11:24:53;12.70;99.90
61912;DHT22;49973;52.084;5.412;2023-03-15T11:27:23;12.60;99.90
61912;DHT22;49973;52.084;5.412;2023-03-15T11:29:55;12.30;99.90
61912;DHT22;49973;52.084;5.412;2023-03-15T11:32:27;12.20;99.90
61912;DHT22;49973;52.084;5.412;2023-03-15T11:35:00;12.20;99.90
61912;DHT22;49973;52.084;5.412;2023-03-15T11:37:33;12.40;99.90
61912;DHT22;49973;52.084;5.412;2023-03-15T11:40:14;12.70;99.90
61912;DHT22;49973;52.084;5.412;2023-03-15T11:42:47;12.90;99.90
61912;DHT22;49973;52.084;5.412;2023-03-15T11:45:19;13.10;99.90
61912;DHT22;49973;52.084;5.412;2023-03-15T11:47:53;13.30;99.90
61912;DHT22;49973;52.084;5.412;2023-03-15T11:50:23;13.40;99.90
61912;DHT22;49973;52.084;5.412;2023-03-15T11:52:52;13.60;99.90
61912;DHT22;49973;52.084;5.412;2023-03-15T11:55:24;13.80;99.90
61912;DHT22;49973;52.084;5.412;2023-03-15T11:57:54;14.00;99.90
61912;DHT22;49973;52.084;5.412;2023-03-15T12:00:50;14.10;99.90
61912;DHT22;49973;52.084;5.412;2023-03-15T12:03:39;14.40;99.90
61912;DHT22;49973;52.084;5.412;2023-03-15T12:06:34;14.70;99.90
61912;DHT22;49973;52.084;5.412;2023-03-15T12:12:04;15.20;99.90
61912;DHT22;49973;52.084;5.412;2023-03-15T12:14:34;15.40;99.90
61912;DHT22;49973;52.084;5.412;2023-03-15T12:17:37;15.60;99.90
61912;DHT22;49973;52.084;5.412;2023-03-15T12:20:21;15.90;99.90
61912;DHT22;49973;52.084;5.412;2023-03-15T12:23:06;16.00;99.90
61912;DHT22;49973;52.084;5.412;2023-03-15T12:25:47;16.30;99.90
61912;DHT22;49973;52.084;5.412;2023-03-15T12:28:25;16.20;99.90
61912;DHT22;49973;52.084;5.412;2023-03-15T12:30:56;15.90;99.90
61912;DHT22;49973;52.084;5.412;2023-03-15T12:33:30;15.80;99.90
61912;DHT22;49973;52.084;5.412;2023-03-15T12:36:01;15.80;99.90
61912;DHT22;49973;52.084;5.412;2023-03-15T12:38:36;15.80;99.90
61912;DHT22;49973;52.084;5.412;2023-03-15T12:41:06;15.80;99.90
61912;DHT22;49973;52.084;5.412;2023-03-15T12:43:37;15.90;99.90
61912;DHT22;49973;52.084;5.412;2023-03-15T12:46:08;15.70;99.90
61912;DHT22;49973;52.084;5.412;2023-03-15T12:49:10;15.60;99.90
61912;DHT22;49973;52.084;5.412;2023-03-15T12:51:52;15.30;99.90
61912;DHT22;49973;52.084;5.412;2023-03-15T12:54:29;15.30;99.90
61912;DHT22;49973;52.084;5.412;2023-03-15T12:56:59;15.00;99.90
61912;DHT22;49973;52.084;5.412;2023-03-15T12:59:39;14.40;99.90
61912;DHT22;49973;52.084;5.412;2023-03-15T13:02:23;13.90;99.90
61912;DHT22;49973;52.084;5.412;2023-03-15T13:05:17;13.60;99.90
61912;DHT22;49973;52.084;5.412;2023-03-15T13:07:59;13.90;99.90
61912;DHT22;49973;52.084;5.412;2023-03-15T13:10:39;14.20;99.90
61912;DHT22;49973;52.084;5.412;2023-03-15T13:13:32;14.50;99.90
61912;DHT22;49973;52.084;5.412;2023-03-15T13:16:18;14.90;99.90
61912;DHT22;49973;52.084;5.412;2023-03-15T13:18:57;15.40;99.90
61912;DHT22;49973;52.084;5.412;2023-03-15T13:21:32;15.80;99.90
61912;DHT22;49973;52.084;5.412;2023-03-15T13:24:10;16.20;99.90
61912;DHT22;49973;52.084;5.412;2023-03-15T13:26:50;16.40;99.90
61912;DHT22;49973;52.084;5.412;2023-03-15T13:29:26;16.50;99.90
61912;DHT22;49973;52.084;5.412;2023-03-15T13:32:00;16.50;99.90
61912;DHT22;49973;52.084;5.412;2023-03-15T13:34:30;16.60;99.90
61912;DHT22;49973;52.084;5.412;2023-03-15T13:37:01;16.60;99.90
61912;DHT22;49973;52.084;5.412;2023-03-15T13:39:31;16.70;99.90
61912;DHT22;49973;52.084;5.412;2023-03-15T13:42:03;16.60;99.90
61912;DHT22;49973;52.084;5.412;2023-03-15T13:44:32;16.50;99.90
61912;DHT22;49973;52.084;5.412;2023-03-15T13:47:01;16.50;99.90
61912;DHT22;49973;52.084;5.412;2023-03-15T13:49:31;16.50;99.90
61912;DHT22;49973;52.084;5.412;2023-03-15T13:52:03;16.70;99.90
61912;DHT22;49973;52.084;5.412;2023-03-15T13:54:38;16.80;99.90
61912;DHT22;49973;52.084;5.412;2023-03-15T13:57:10;16.90;99.90
61912;DHT22;49973;52.084;5.412;2023-03-15T13:59:43;17.00;99.90
61912;DHT22;49973;52.084;5.412;2023-03-15T14:02:16;16.80;99.90
61912;DHT22;49973;52.084;5.412;2023-03-15T14:04:48;16.60;99.90
61912;DHT22;49973;52.084;5.412;2023-03-15T14:07:26;16.40;99.90
61912;DHT22;49973;52.084;5.412;2023-03-15T14:10:07;16.20;99.90
61912;DHT22;49973;52.084;5.412;2023-03-15T14:12:36;16.00;99.90
61912;DHT22;49973;52.084;5.412;2023-03-15T14:15:14;15.80;99.90
61912;DHT22;49973;52.084;5.412;2023-03-15T14:17:52;15.60;99.90
61912;DHT22;49973;52.084;5.412;2023-03-15T14:20:25;15.40;99.90
61912;DHT22;49973;52.084;5.412;2023-03-15T14:23:02;15.10;99.90
61912;DHT22;49973;52.084;5.412;2023-03-15T14:25:34;14.80;99.90
61912;DHT22;49973;52.084;5.412;2023-03-15T14:28:04;14.40;99.90
61912;DHT22;49973;52.084;5.412;2023-03-15T14:30:35;14.00;99.90
61912;DHT22;49973;52.084;5.412;2023-03-15T14:33:05;13.60;99.90
61912;DHT22;49973;52.084;5.412;2023-03-15T14:35:42;13.30;99.90
61912;DHT22;49973;52.084;5.412;2023-03-15T14:38:18;13.10;99.90
61912;DHT22;49973;52.084;5.412;2023-03-15T14:40:48;13.00;99.90
61912;DHT22;49973;52.084;5.412;2023-03-15T14:43:18;12.90;99.90
61912;DHT22;49973;52.084;5.412;2023-03-15T14:45:47;12.80;99.90
61912;DHT22;49973;52.084;5.412;2023-03-15T14:48:21;12.60;99.90
61912;DHT22;49973;52.084;5.412;2023-03-15T14:50:51;12.40;99.90
61912;DHT22;49973;52.084;5.412;2023-03-15T14:53:23;12.30;99.90
61912;DHT22;49973;52.084;5.412;2023-03-15T14:55:54;12.20;99.90
61912;DHT22;49973;52.084;5.412;2023-03-15T14:58:22;12.10;99.90
61912;DHT22;49973;52.084;5.412;2023-03-15T15:00:53;11.90;99.90
61912;DHT22;49973;52.084;5.412;2023-03-15T15:03:28;11.90;99.90
61912;DHT22;49973;52.084;5.412;2023-03-15T15:05:59;11.80;99.90
61912;DHT22;49973;52.084;5.412;2023-03-15T15:08:30;11.60;99.90
61912;DHT22;49973;52.084;5.412;2023-03-15T15:11:00;11.50;99.90
61912;DHT22;49973;52.084;5.412;2023-03-15T15:13:29;11.40;99.90
61912;DHT22;49973;52.084;5.412;2023-03-15T15:15:58;11.20;99.90
61912;DHT22;49973;52.084;5.412;2023-03-15T15:18:28;11.10;99.90
61912;DHT22;49973;52.084;5.412;2023-03-15T15:20:59;10.90;99.90
61912;DHT22;49973;52.084;5.412;2023-03-15T15:23:31;10.80;99.90
61912;DHT22;49973;52.084;5.412;2023-03-15T15:26:16;10.70;99.90
61912;DHT22;49973;52.084;5.412;2023-03-15T15:28:45;10.60;99.90
61912;DHT22;49973;52.084;5.412;2023-03-15T15:31:17;10.50;99.90
61912;DHT22;49973;52.084;5.412;2023-03-15T15:33:46;10.50;99.90
61912;DHT22;49973;52.084;5.412;2023-03-15T15:36:18;10.40;99.90
61912;DHT22;49973;52.084;5.412;2023-03-15T15:38:50;10.40;99.90
61912;DHT22;49973;52.084;5.412;2023-03-15T15:41:21;10.40;99.90
61912;DHT22;49973;52.084;5.412;2023-03-15T15:43:50;10.30;99.90
61912;DHT22;49973;52.084;5.412;2023-03-15T15:46:19;10.30;99.90
61912;DHT22;49973;52.084;5.412;2023-03-15T15:48:50;10.20;99.90
61912;DHT22;49973;52.084;5.412;2023-03-15T15:51:23;10.20;99.90
61912;DHT22;49973;52.084;5.412;2023-03-15T15:53:55;10.10;99.90
61912;DHT22;49973;52.084;5.412;2023-03-15T15:56:30;10.00;99.90
61912;DHT22;49973;52.084;5.412;2023-03-15T15:59:00;10.00;99.90
61912;DHT22;49973;52.084;5.412;2023-03-15T16:01:31;9.90;99.90
61912;DHT22;49973;52.084;5.412;2023-03-15T16:03:59;9.90;99.90
61912;DHT22;49973;52.084;5.412;2023-03-15T16:06:30;9.80;99.90
61912;DHT22;49973;52.084;5.412;2023-03-15T16:09:00;9.80;99.90
61912;DHT22;49973;52.084;5.412;2023-03-15T16:11:31;9.80;99.90
61912;DHT22;49973;52.084;5.412;2023-03-15T16:14:00;9.70;99.90
61912;DHT22;49973;52.084;5.412;2023-03-15T16:16:28;9.60;99.90
61912;DHT22;49973;52.084;5.412;2023-03-15T16:18:57;9.60;99.90
61912;DHT22;49973;52.084;5.412;2023-03-15T16:21:30;9.50;99.90